Terminal Aerodrome Forecast
Issued by NWS North Platte, NE

Home | Current Version | Previous Version | Graphics & Text | Print | Product List | Glossary On
Versions: 1 2 3 4 5 6 7 8 9 10 11 12 13
671
FTUS43 KLBF 200059 AAA
TAFVTN
TAF AMD
KVTN 200059Z 2001/2024 31022G35KT P6SM SCT250
     FM200200 30015G23KT P6SM BKN200
     FM200500 30012KT P6SM BKN200
     FM200900 28005KT P6SM SCT250
     FM201500 27012KT P6SM FEW250
     FM202200 24012KT P6SM SKC=

USA.gov is the U.S. government's official web portal to all federal, state and local government web resources and services.